createdAt,value
2019-01-11T00:02:06.520Z,88.07
2019-01-11T00:04:35.566Z,88.60
2019-01-11T00:07:04.669Z,88.44
2019-01-11T00:09:33.740Z,88.87
2019-01-11T00:12:02.790Z,89.28
2019-01-11T00:14:31.909Z,89.05
2019-01-11T00:17:01.022Z,87.61
2019-01-11T00:19:30.095Z,88.76
2019-01-11T00:22:01.333Z,89.77
2019-01-11T00:24:30.426Z,89.26
2019-01-11T00:26:59.589Z,87.94
2019-01-11T00:29:28.879Z,88.54
2019-01-11T00:31:57.966Z,89.39
2019-01-11T00:34:27.226Z,89.36
2019-01-11T00:36:56.435Z,89.56
2019-01-11T00:39:27.947Z,89.36
2019-01-11T00:41:57.082Z,88.99
2019-01-11T00:44:26.621Z,88.52
2019-01-11T00:46:56.631Z,89.91
2019-01-11T00:49:25.696Z,90.41
2019-01-11T00:51:54.792Z,91.08
2019-01-11T00:54:23.840Z,90.08
2019-01-11T00:56:52.974Z,89.94
2019-01-11T00:59:22.067Z,90.20
2019-01-11T01:01:51.096Z,89.65
2019-01-11T01:04:20.155Z,89.11
2019-01-11T01:06:49.283Z,87.99
2019-01-11T01:09:18.332Z,88.16
2019-01-11T01:11:47.384Z,88.08
2019-01-11T01:14:16.481Z,88.12
2019-01-11T01:16:45.556Z,87.02
2019-01-11T01:19:20.133Z,88.43
2019-01-11T01:21:49.172Z,87.74
2019-01-11T01:24:18.218Z,89.23
2019-01-11T01:26:49.640Z,89.35
2019-01-11T01:29:20.221Z,88.41
2019-01-11T01:31:50.767Z,88.70
2019-01-11T01:34:19.809Z,88.34
2019-01-11T01:36:48.944Z,90.28
2019-01-11T01:39:17.993Z,90.03
2019-01-11T01:41:47.079Z,89.56
2019-01-11T01:44:16.106Z,89.00
2019-01-11T01:46:45.255Z,89.70
2019-01-11T01:49:14.433Z,89.19
2019-01-11T01:51:44.647Z,90.14
2019-01-11T01:54:13.750Z,90.34
2019-01-11T01:56:42.843Z,90.16
2019-01-11T01:59:11.981Z,90.20
2019-01-11T02:01:41.034Z,89.68
2019-01-11T02:04:11.158Z,89.20
2019-01-11T02:06:44.579Z,89.23
2019-01-11T02:09:13.642Z,88.55
2019-01-11T02:11:44.002Z,88.49
2019-01-11T02:14:13.173Z,88.68
2019-01-11T02:16:42.273Z,88.10
2019-01-11T02:19:11.295Z,88.96
2019-01-11T02:21:47.927Z,89.64
2019-01-11T02:24:17.070Z,89.47
2019-01-11T02:26:46.135Z,89.23
2019-01-11T02:29:15.190Z,88.88
2019-01-11T02:31:44.286Z,90.54
2019-01-11T02:34:13.349Z,89.78
2019-01-11T02:36:45.003Z,89.48
2019-01-11T02:39:14.055Z,89.45
2019-01-11T02:41:43.051Z,88.47
2019-01-11T02:44:12.099Z,88.62
2019-01-11T02:46:41.135Z,89.49
2019-01-11T02:49:10.270Z,89.86
2019-01-11T02:51:39.498Z,89.87
2019-01-11T02:54:09.555Z,89.60
2019-01-11T02:56:38.670Z,89.26
2019-01-11T02:59:07.703Z,90.06
2019-01-11T03:01:36.762Z,89.91
2019-01-11T03:04:05.800Z,90.18
2019-01-11T03:06:34.835Z,89.54
2019-01-11T03:09:05.097Z,88.57
2019-01-11T03:11:34.160Z,89.51
2019-01-11T03:14:03.193Z,90.08
2019-01-11T03:16:32.190Z,89.48
2019-01-11T03:19:02.130Z,90.46
2019-01-11T03:21:31.377Z,90.91
2019-01-11T03:24:02.755Z,89.92
2019-01-11T03:26:31.753Z,89.82
2019-01-11T03:29:00.799Z,89.01
2019-01-11T03:31:35.417Z,89.97
2019-01-11T03:34:04.731Z,90.08
2019-01-11T03:36:33.749Z,90.19
2019-01-11T03:39:04.105Z,89.48
2019-01-11T03:41:35.936Z,89.23
2019-01-11T03:44:04.974Z,88.88
2019-01-11T03:46:33.994Z,88.43
2019-01-11T03:49:03.012Z,86.86
2019-01-11T03:51:32.038Z,87.94
2019-01-11T03:54:01.126Z,89.71
2019-01-11T03:56:30.220Z,89.82
2019-01-11T03:58:59.257Z,90.03
2019-01-11T04:01:28.304Z,91.45
2019-01-11T04:03:57.334Z,91.61
2019-01-11T04:06:26.479Z,91.28
2019-01-11T04:08:55.559Z,91.60
2019-01-11T04:11:25.857Z,91.45
2019-01-11T04:13:54.973Z,90.62
2019-01-11T04:16:24.183Z,90.74
2019-01-11T04:19:00.259Z,90.03
2019-01-11T04:21:29.454Z,89.93
2019-01-11T04:23:58.493Z,89.39
2019-01-11T04:26:27.522Z,89.72
2019-01-11T04:28:56.591Z,90.01
2019-01-11T04:31:25.702Z,89.34
2019-01-11T04:33:54.859Z,90.17
2019-01-11T04:36:25.256Z,89.96
2019-01-11T04:38:54.299Z,89.97
2019-01-11T04:41:23.461Z,90.46
2019-01-11T04:43:52.552Z,90.01
2019-01-11T04:46:21.541Z,88.38
2019-01-11T04:48:50.592Z,88.75
2019-01-11T04:51:19.643Z,89.28
2019-01-11T04:53:49.983Z,89.34
2019-01-11T04:56:19.073Z,87.94
2019-01-11T04:58:48.088Z,87.56
2019-01-11T05:01:17.162Z,88.57
2019-01-11T05:03:46.239Z,89.29
2019-01-11T05:06:15.329Z,89.29
2019-01-11T05:08:44.483Z,89.75
2019-01-11T05:11:14.732Z,90.69
2019-01-11T05:13:46.803Z,91.00
2019-01-11T05:16:15.829Z,91.15
2019-01-11T05:18:45.181Z,90.83
2019-01-11T05:21:15.698Z,91.28
2019-01-11T05:23:44.832Z,90.82
2019-01-11T05:26:13.823Z,89.93
2019-01-11T05:28:42.866Z,88.90
2019-01-11T05:31:11.930Z,88.74
2019-01-11T05:33:40.964Z,87.78
2019-01-11T05:36:09.983Z,87.97
2019-01-11T05:38:39.201Z,86.77
2019-01-11T05:41:08.260Z,89.56
2019-01-11T05:43:37.279Z,89.71
2019-01-11T05:46:06.370Z,89.38
2019-01-11T05:48:35.391Z,89.24
2019-01-11T05:51:07.357Z,89.71
2019-01-11T05:53:36.362Z,89.08
2019-01-11T05:56:12.798Z,88.88
2019-01-11T05:58:49.929Z,86.46
2019-01-11T06:01:19.992Z,88.60
2019-01-11T06:03:49.171Z,88.12
2019-01-11T06:06:19.260Z,87.30
2019-01-11T06:08:50.747Z,86.97
2019-01-11T06:11:20.864Z,88.24
2019-01-11T06:13:50.419Z,87.83
2019-01-11T06:16:19.483Z,87.72
2019-01-11T06:18:48.587Z,89.11
2019-01-11T06:21:17.602Z,90.43
2019-01-11T06:23:47.198Z,89.47
2019-01-11T06:26:16.811Z,89.90
2019-01-11T06:28:45.963Z,89.75
2019-01-11T06:31:15.036Z,90.00
2019-01-11T06:33:44.123Z,90.57
2019-01-11T06:36:13.544Z,89.40
2019-01-11T06:38:44.070Z,90.32
2019-01-11T06:41:14.348Z,89.09
2019-01-11T06:43:44.916Z,88.97
2019-01-11T06:46:15.893Z,89.76
2019-01-11T06:48:45.401Z,90.29
2019-01-11T06:51:16.171Z,90.10
2019-01-11T06:53:46.020Z,90.31
2019-01-11T06:56:16.639Z,91.41
2019-01-11T06:58:46.748Z,90.11
2019-01-11T07:01:17.093Z,90.90
2019-01-11T07:03:46.225Z,90.34
2019-01-11T07:06:15.841Z,91.14
2019-01-11T07:08:45.631Z,90.64
2019-01-11T07:11:14.865Z,91.11
2019-01-11T07:13:44.131Z,91.83
2019-01-11T07:16:13.880Z,92.73
2019-01-11T07:18:42.900Z,91.57
2019-01-11T07:21:12.104Z,92.59
2019-01-11T07:23:41.218Z,91.56
2019-01-11T07:26:10.421Z,91.27
2019-01-11T07:28:40.042Z,92.43
2019-01-11T07:31:11.950Z,92.44
2019-01-11T07:33:40.994Z,92.52
2019-01-11T07:36:29.454Z,92.61
2019-01-11T07:38:58.583Z,91.68
2019-01-11T07:41:28.993Z,91.71
2019-01-11T07:43:58.055Z,92.11
2019-01-11T07:46:28.260Z,91.78
2019-01-11T07:48:57.424Z,91.52
2019-01-11T07:51:27.448Z,92.01
2019-01-11T07:53:58.559Z,92.59
2019-01-11T07:56:27.637Z,92.36
2019-01-11T07:58:57.072Z,90.52
2019-01-11T08:01:26.765Z,91.05
2019-01-11T08:03:57.025Z,92.12
2019-01-11T08:06:26.606Z,91.66
2019-01-11T08:08:56.201Z,92.95
2019-01-11T08:11:25.628Z,91.52
2019-01-11T08:13:54.832Z,91.74
2019-01-11T08:16:24.039Z,90.79
2019-01-11T08:18:53.727Z,92.70
2019-01-11T08:21:23.053Z,92.51
2019-01-11T08:23:52.111Z,91.52
2019-01-11T08:26:21.144Z,91.75
2019-01-11T08:28:50.320Z,91.58
2019-01-11T08:31:19.502Z,92.35
2019-01-11T08:33:48.640Z,92.88
2019-01-11T08:36:17.799Z,92.46
2019-01-11T08:38:49.915Z,92.61
2019-01-11T08:41:19.054Z,92.93
2019-01-11T08:43:48.264Z,93.23
2019-01-11T08:46:17.336Z,90.93
2019-01-11T08:48:46.393Z,91.18
2019-01-11T08:51:17.555Z,91.48
2019-01-11T08:53:46.556Z,92.95
2019-01-11T08:56:16.107Z,90.65
2019-01-11T08:58:46.232Z,90.85
2019-01-11T09:01:15.283Z,90.70
2019-01-11T09:03:44.354Z,91.10
2019-01-11T09:06:13.388Z,90.67
2019-01-11T09:08:42.523Z,92.74
2019-01-11T09:11:11.696Z,91.19
2019-01-11T09:13:45.034Z,91.41
2019-01-11T09:16:20.598Z,90.86
2019-01-11T09:18:52.296Z,91.48
2019-01-11T09:21:22.718Z,91.76
2019-01-11T09:23:51.787Z,93.89
2019-01-11T09:26:20.971Z,94.09
2019-01-11T09:28:50.088Z,93.55
2019-01-11T09:31:20.086Z,93.94
2019-01-11T09:33:49.218Z,92.60
2019-01-11T09:36:18.459Z,92.78
2019-01-11T09:38:47.526Z,92.81
2019-01-11T09:41:16.580Z,93.61
2019-01-11T09:43:45.733Z,94.44
2019-01-11T09:46:15.882Z,93.61
2019-01-11T09:48:48.277Z,93.22
2019-01-11T09:51:17.378Z,93.21
2019-01-11T09:53:49.314Z,93.36
2019-01-11T09:56:18.364Z,93.25
2019-01-11T09:58:47.464Z,94.22
2019-01-11T10:01:16.609Z,91.87
2019-01-11T10:03:45.672Z,92.57
2019-01-11T10:06:14.700Z,92.96
2019-01-11T10:08:44.138Z,93.61
2019-01-11T10:11:13.614Z,94.59
2019-01-11T10:13:42.743Z,91.88
2019-01-11T10:16:11.806Z,92.63
2019-01-11T10:18:40.984Z,91.37
2019-01-11T10:21:10.004Z,93.21
2019-01-11T10:23:39.064Z,90.69
2019-01-11T10:26:08.200Z,92.37
2019-01-11T10:28:39.561Z,94.00
2019-01-11T10:31:08.599Z,93.04
2019-01-11T10:33:40.670Z,93.57
2019-01-11T10:36:11.049Z,95.19
2019-01-11T10:38:41.326Z,93.20
2019-01-11T10:41:12.639Z,91.63
2019-01-11T10:43:41.712Z,92.72
2019-01-11T10:46:29.866Z,92.58
2019-01-11T10:48:59.028Z,93.71
2019-01-11T10:51:32.019Z,92.86
2019-01-11T10:54:01.130Z,92.74
2019-01-11T10:56:30.329Z,92.92
2019-01-11T10:58:59.370Z,92.65
2019-01-11T11:01:28.522Z,92.47
2019-01-11T11:03:57.569Z,92.89
2019-01-11T11:06:28.610Z,92.71
2019-01-11T11:08:57.782Z,93.33
2019-01-11T11:11:26.989Z,92.55
2019-01-11T11:13:56.053Z,92.90
2019-01-11T11:16:25.208Z,94.03
2019-01-11T11:18:54.314Z,93.38
2019-01-11T11:21:23.757Z,94.13
2019-01-11T11:23:54.175Z,92.55
2019-01-11T11:26:25.341Z,93.92
2019-01-11T11:28:54.486Z,94.67
2019-01-11T11:31:23.670Z,94.76
2019-01-11T11:33:54.222Z,94.32
2019-01-11T11:36:23.540Z,93.47
2019-01-11T11:38:52.992Z,93.41
2019-01-11T11:41:22.301Z,92.87
2019-01-11T11:43:51.431Z,94.24
2019-01-11T11:46:20.924Z,92.34
2019-01-11T11:48:50.133Z,92.23
2019-01-11T11:51:19.214Z,92.91
2019-01-11T11:53:48.270Z,92.32
2019-01-11T11:56:17.484Z,92.48
2019-01-11T11:58:46.647Z,91.24
2019-01-11T12:01:15.826Z,90.04
2019-01-11T12:03:45.229Z,90.29
2019-01-11T12:06:14.859Z,91.05
2019-01-11T12:08:44.908Z,90.40
2019-01-11T12:11:15.496Z,89.08
2019-01-11T12:13:44.885Z,92.32
2019-01-11T12:16:14.404Z,92.02
2019-01-11T12:18:44.534Z,92.36
2019-01-11T12:21:16.290Z,92.12
2019-01-11T12:23:45.804Z,92.72
2019-01-11T12:26:16.084Z,92.66
2019-01-11T12:28:47.112Z,92.82
2019-01-11T12:31:16.275Z,92.69
2019-01-11T12:33:45.493Z,92.01
2019-01-11T12:36:15.224Z,90.91
2019-01-11T12:38:46.112Z,91.11
2019-01-11T12:41:15.804Z,91.97
2019-01-11T12:43:44.990Z,91.94
2019-01-11T12:46:14.607Z,92.33
2019-01-11T12:48:43.753Z,92.73
2019-01-11T12:51:12.892Z,93.15
2019-01-11T12:53:41.984Z,93.28
2019-01-11T12:56:11.086Z,92.99
2019-01-11T12:58:40.262Z,92.91
2019-01-11T13:01:09.449Z,92.59
2019-01-11T13:03:38.712Z,93.08
2019-01-11T13:06:08.070Z,93.85
2019-01-11T13:08:37.265Z,93.99
2019-01-11T13:11:06.706Z,93.18
2019-01-11T13:13:36.496Z,93.04
2019-01-11T13:16:10.674Z,93.87
2019-01-11T13:18:41.257Z,94.17
2019-01-11T13:21:10.311Z,94.44
2019-01-11T13:23:39.609Z,94.51
2019-01-11T13:26:11.421Z,94.43
2019-01-11T13:28:40.591Z,95.00
2019-01-11T13:31:10.881Z,95.31
2019-01-11T13:33:40.393Z,94.29
2019-01-11T13:36:18.278Z,94.76
2019-01-11T13:38:47.413Z,95.17
2019-01-11T13:41:16.557Z,95.67
2019-01-11T13:43:51.039Z,95.59
2019-01-11T13:46:21.657Z,95.49
2019-01-11T13:48:51.830Z,95.79
2019-01-11T13:51:24.009Z,95.79
2019-01-11T13:53:53.187Z,95.14
2019-01-11T13:56:22.304Z,95.29
2019-01-11T13:58:51.498Z,95.63
2019-01-11T14:01:20.648Z,95.34
2019-01-11T14:03:49.740Z,96.12
2019-01-11T14:06:20.865Z,95.61
2019-01-11T14:08:50.177Z,95.77
2019-01-11T14:11:20.539Z,95.16
2019-01-11T14:13:49.910Z,94.47
2019-01-11T14:16:20.548Z,95.28
2019-01-11T14:18:49.999Z,93.57
2019-01-11T14:21:20.293Z,94.46
2019-01-11T14:23:49.629Z,95.57
2019-01-11T14:26:21.098Z,94.54
2019-01-11T14:28:50.239Z,94.58
2019-01-11T14:31:19.272Z,94.55
2019-01-11T14:33:48.333Z,94.68
2019-01-11T14:36:17.976Z,95.05
2019-01-11T14:38:47.052Z,95.62
2019-01-11T14:41:16.660Z,95.28
2019-01-11T14:43:46.928Z,95.46
2019-01-11T14:46:17.362Z,96.33
2019-01-11T14:48:46.511Z,96.36
2019-01-11T14:51:15.612Z,95.50
2019-01-11T14:53:44.742Z,94.78
2019-01-11T14:56:13.813Z,95.27
2019-01-11T14:58:42.776Z,95.80
2019-01-11T15:01:11.918Z,94.78
2019-01-11T15:03:41.153Z,95.35
2019-01-11T15:06:10.257Z,95.76
2019-01-11T15:08:39.459Z,96.63
2019-01-11T15:11:10.279Z,96.32
2019-01-11T15:13:39.326Z,96.61
2019-01-11T15:16:08.363Z,96.04
2019-01-11T15:18:37.423Z,95.98
2019-01-11T15:21:06.903Z,96.13
2019-01-11T15:23:35.893Z,96.18
2019-01-11T15:26:04.996Z,96.50
2019-01-11T15:28:34.045Z,96.69
2019-01-11T15:31:03.196Z,97.06
2019-01-11T15:33:32.752Z,97.36
2019-01-11T15:36:01.879Z,97.75
2019-01-11T15:38:32.782Z,97.16
2019-01-11T15:41:01.883Z,97.19
2019-01-11T15:43:30.961Z,96.65
2019-01-11T15:46:05.732Z,96.21
2019-01-11T15:48:48.968Z,96.72
2019-01-11T15:51:20.780Z,96.77
2019-01-11T15:53:49.870Z,97.70
2019-01-11T15:56:28.404Z,97.36
2019-01-11T15:58:57.576Z,97.21
2019-01-11T16:01:27.971Z,96.77
2019-01-11T16:03:57.004Z,97.25
2019-01-11T16:06:33.843Z,97.07
2019-01-11T16:10:01.147Z,97.15
2019-01-11T16:12:33.677Z,96.49
2019-01-11T16:15:43.507Z,97.02
2019-01-11T16:18:28.204Z,96.96
2019-01-11T16:20:57.276Z,96.38
2019-01-11T16:23:26.329Z,96.95
2019-01-11T16:25:56.661Z,97.05
2019-01-11T16:28:26.983Z,97.77
2019-01-11T16:30:55.993Z,97.76
2019-01-11T16:33:25.786Z,97.67
2019-01-11T16:35:54.954Z,96.46
2019-01-11T16:38:24.298Z,97.52
2019-01-11T16:40:53.703Z,98.30
2019-01-11T16:43:22.732Z,98.26
2019-01-11T16:45:52.257Z,97.00
2019-01-11T16:48:21.563Z,97.72
2019-01-11T16:50:52.315Z,98.47
2019-01-11T16:53:21.842Z,98.82
2019-01-11T16:55:51.156Z,99.00
2019-01-11T16:58:21.168Z,98.76
2019-01-11T17:00:50.608Z,98.77
2019-01-11T17:03:19.831Z,99.08
2019-01-11T17:05:48.989Z,98.47
2019-01-11T17:08:18.230Z,97.83
2019-01-11T17:10:47.453Z,98.31
2019-01-11T17:13:17.643Z,98.61
2019-01-11T17:15:46.775Z,99.38
2019-01-11T17:18:16.299Z,99.24
2019-01-11T17:20:45.867Z,98.50
2019-01-11T17:23:15.632Z,97.64
2019-01-11T17:25:45.220Z,97.52
2019-01-11T17:28:14.374Z,98.20
2019-01-11T17:30:43.586Z,98.12
2019-01-11T17:33:12.610Z,98.48
2019-01-11T17:35:41.606Z,99.22
2019-01-11T17:38:10.691Z,99.01
2019-01-11T17:40:39.667Z,98.25
2019-01-11T17:43:08.709Z,98.35
2019-01-11T17:45:37.992Z,97.86
2019-01-11T17:48:07.052Z,97.70
2019-01-11T17:50:36.104Z,98.14
2019-01-11T17:53:05.111Z,98.05
2019-01-11T17:55:37.117Z,98.50
2019-01-11T17:58:06.437Z,98.75
2019-01-11T18:00:36.178Z,98.57
2019-01-11T18:03:06.804Z,98.39
2019-01-11T18:05:37.967Z,98.02
2019-01-11T18:08:07.165Z,98.07
2019-01-11T18:10:36.359Z,98.12
2019-01-11T18:13:05.444Z,97.56
2019-01-11T18:15:34.559Z,98.42
2019-01-11T18:18:03.948Z,97.78
2019-01-11T18:20:33.389Z,98.14
2019-01-11T18:23:06.833Z,97.96
2019-01-11T18:25:33.243Z,96.79
2019-01-11T18:28:02.424Z,97.56
2019-01-11T18:30:31.559Z,96.83
2019-01-11T18:33:00.684Z,97.61
2019-01-11T18:35:30.074Z,98.33
2019-01-11T18:37:59.082Z,97.37
2019-01-11T18:40:28.145Z,98.10
2019-01-11T18:42:57.182Z,98.65
2019-01-11T18:45:29.058Z,99.00
2019-01-11T18:47:58.225Z,98.37
2019-01-11T18:50:27.264Z,98.28
2019-01-11T18:52:56.305Z,98.60
2019-01-11T18:55:26.589Z,98.59
2019-01-11T18:57:55.646Z,98.20
2019-01-11T19:00:25.053Z,98.75
2019-01-11T19:02:54.077Z,99.28
2019-01-11T19:05:23.178Z,99.13
2019-01-11T19:07:52.504Z,98.97
2019-01-11T19:10:21.704Z,99.01
2019-01-11T19:12:50.753Z,99.36
2019-01-11T19:15:26.061Z,99.41
2019-01-11T19:17:56.575Z,99.54
2019-01-11T19:20:30.326Z,99.58
2019-01-11T19:23:01.117Z,99.16
2019-01-11T19:25:30.185Z,99.13
2019-01-11T19:28:02.324Z,99.15
2019-01-11T19:30:31.631Z,98.42
2019-01-11T19:33:00.902Z,98.93
2019-01-11T19:35:29.977Z,99.14
2019-01-11T19:37:59.196Z,98.53
2019-01-11T19:40:29.765Z,97.89
2019-01-11T19:42:59.073Z,97.11
2019-01-11T19:45:28.219Z,98.02
2019-01-11T19:47:57.352Z,97.36
2019-01-11T19:50:26.563Z,97.57
2019-01-11T19:52:55.609Z,97.17
2019-01-11T19:55:25.123Z,97.92
2019-01-11T19:57:54.719Z,97.71
2019-01-11T20:00:28.869Z,97.90
2019-01-11T20:02:59.469Z,97.44
2019-01-11T20:05:28.551Z,97.18
2019-01-11T20:07:57.668Z,97.22
2019-01-11T20:10:31.717Z,98.24
2019-01-11T20:13:02.289Z,98.36
2019-01-11T20:15:31.516Z,98.83
2019-01-11T20:18:00.632Z,99.25
2019-01-11T20:20:30.026Z,98.92
2019-01-11T20:23:02.440Z,98.84
2019-01-11T20:25:29.838Z,98.96
2019-01-11T20:27:59.269Z,99.02
2019-01-11T20:30:28.789Z,99.14
2019-01-11T20:32:57.975Z,99.27
2019-01-11T20:35:27.141Z,99.94
2019-01-11T20:37:56.185Z,99.54
2019-01-11T20:40:25.191Z,98.52
2019-01-11T20:42:54.262Z,98.86
2019-01-11T20:45:23.343Z,98.73
2019-01-11T20:47:52.422Z,98.37
2019-01-11T20:50:25.866Z,98.24
2019-01-11T20:52:56.911Z,97.98
2019-01-11T20:55:26.022Z,98.09
2019-01-11T20:57:55.541Z,98.51
2019-01-11T21:00:27.305Z,98.77
2019-01-11T21:02:57.742Z,99.32
2019-01-11T21:05:27.138Z,99.26
2019-01-11T21:07:56.196Z,99.20
2019-01-11T21:10:25.209Z,99.58
2019-01-11T21:12:54.290Z,99.82
2019-01-11T21:15:23.453Z,99.12
2019-01-11T21:17:53.874Z,98.83
2019-01-11T21:20:22.941Z,98.16
2019-01-11T21:22:51.991Z,97.83
2019-01-11T21:25:21.081Z,98.60
2019-01-11T21:27:50.097Z,99.03
2019-01-11T21:30:29.797Z,99.19
2019-01-11T21:32:58.849Z,98.62
2019-01-11T21:35:27.879Z,99.60
2019-01-11T21:37:57.245Z,99.73
2019-01-11T21:40:28.178Z,99.27
2019-01-11T21:42:57.482Z,98.52
2019-01-11T21:45:26.690Z,98.41
2019-01-11T21:47:57.507Z,97.78
2019-01-11T21:50:29.157Z,98.23
2019-01-11T21:52:59.548Z,98.71
2019-01-11T21:55:28.835Z,98.46
2019-01-11T21:57:58.147Z,98.50
2019-01-11T22:00:45.097Z,98.61
2019-01-11T22:03:19.397Z,99.13
2019-01-11T22:05:48.720Z,98.89
2019-01-11T22:08:17.752Z,98.09
2019-01-11T22:10:46.924Z,98.32
2019-01-11T22:13:17.649Z,98.61
2019-01-11T22:15:46.675Z,98.20
2019-01-11T22:18:15.765Z,99.04
2019-01-11T22:20:45.144Z,99.21
2019-01-11T22:23:14.210Z,98.84
2019-01-11T22:25:43.616Z,99.35
2019-01-11T22:28:12.894Z,98.50
2019-01-11T22:30:43.672Z,99.10
2019-01-11T22:33:12.718Z,99.08
2019-01-11T22:35:42.374Z,99.19
2019-01-11T22:38:11.913Z,98.69
2019-01-11T22:40:40.948Z,99.70
2019-01-11T22:43:10.757Z,100.00
2019-01-11T22:45:39.979Z,100.00
2019-01-11T22:48:09.505Z,99.60
2019-01-11T22:50:40.073Z,99.50
2019-01-11T22:53:09.376Z,99.12
2019-01-11T22:55:38.849Z,98.92
2019-01-11T22:58:08.942Z,99.12
2019-01-11T23:00:59.915Z,98.74
2019-01-11T23:03:34.975Z,99.49
2019-01-11T23:06:29.361Z,98.87
2019-01-11T23:08:58.452Z,98.75
2019-01-11T23:12:09.372Z,99.37
2019-01-11T23:14:38.438Z,99.64
2019-01-11T23:17:23.545Z,99.94
2019-01-11T23:19:52.574Z,99.32
2019-01-11T23:22:21.661Z,99.64
2019-01-11T23:24:50.781Z,100.00
2019-01-11T23:27:19.884Z,99.24
2019-01-11T23:29:51.307Z,99.53
2019-01-11T23:32:20.447Z,98.98
2019-01-11T23:34:49.731Z,99.07
2019-01-11T23:37:18.804Z,99.31
2019-01-11T23:39:48.562Z,99.41
2019-01-11T23:42:17.714Z,99.72
2019-01-11T23:44:46.762Z,99.10
2019-01-11T23:47:15.778Z,99.36
2019-01-11T23:49:44.859Z,99.37
2019-01-11T23:52:13.926Z,99.19
2019-01-11T23:54:42.938Z,99.03
2019-01-11T23:57:12.074Z,99.23
2019-01-11T23:59:41.128Z,98.69
